sensor_id;sensor_type;location;lat;lon;timestamp;P1;durP1;ratioP1;P2;durP2;ratioP2
62401;SDS011;48440;51.224;22.506;2022-08-02T00:01:37;37.60;;;20.17;;
62401;SDS011;48440;51.224;22.506;2022-08-02T00:04:03;34.88;;;18.00;;
62401;SDS011;48440;51.224;22.506;2022-08-02T00:06:29;37.92;;;19.65;;
62401;SDS011;48440;51.224;22.506;2022-08-02T00:08:54;37.00;;;19.77;;
62401;SDS011;48440;51.224;22.506;2022-08-02T00:11:20;38.40;;;20.45;;
62401;SDS011;48440;51.224;22.506;2022-08-02T00:13:45;35.45;;;19.10;;
62401;SDS011;48440;51.224;22.506;2022-08-02T00:16:11;35.55;;;19.90;;
62401;SDS011;48440;51.224;22.506;2022-08-02T00:18:37;35.67;;;19.80;;
62401;SDS011;48440;51.224;22.506;2022-08-02T00:21:02;39.28;;;18.58;;
62401;SDS011;48440;51.224;22.506;2022-08-02T00:23:28;32.47;;;19.02;;
62401;SDS011;48440;51.224;22.506;2022-08-02T00:25:53;33.90;;;19.10;;
62401;SDS011;48440;51.224;22.506;2022-08-02T00:28:19;39.65;;;20.75;;
62401;SDS011;48440;51.224;22.506;2022-08-02T00:30:44;32.28;;;18.45;;
62401;SDS011;48440;51.224;22.506;2022-08-02T00:33:10;31.65;;;18.30;;
62401;SDS011;48440;51.224;22.506;2022-08-02T00:35:36;35.85;;;19.00;;
62401;SDS011;48440;51.224;22.506;2022-08-02T00:38:02;30.88;;;18.25;;
62401;SDS011;48440;51.224;22.506;2022-08-02T00:40:28;36.65;;;17.90;;
62401;SDS011;48440;51.224;22.506;2022-08-02T00:43:01;30.08;;;18.27;;
62401;SDS011;48440;51.224;22.506;2022-08-02T00:45:36;30.48;;;18.10;;
62401;SDS011;48440;51.224;22.506;2022-08-02T00:48:03;32.22;;;17.67;;
62401;SDS011;48440;51.224;22.506;2022-08-02T00:50:29;29.60;;;17.63;;
62401;SDS011;48440;51.224;22.506;2022-08-02T00:52:56;29.98;;;16.50;;
62401;SDS011;48440;51.224;22.506;2022-08-02T00:55:22;29.23;;;16.85;;
62401;SDS011;48440;51.224;22.506;2022-08-02T00:57:48;29.75;;;16.67;;
62401;SDS011;48440;51.224;22.506;2022-08-02T01:00:14;28.15;;;16.10;;
62401;SDS011;48440;51.224;22.506;2022-08-02T01:02:40;31.75;;;16.42;;
62401;SDS011;48440;51.224;22.506;2022-08-02T01:05:06;27.52;;;15.57;;
62401;SDS011;48440;51.224;22.506;2022-08-02T01:07:32;26.52;;;16.42;;
62401;SDS011;48440;51.224;22.506;2022-08-02T01:09:58;26.42;;;17.02;;
62401;SDS011;48440;51.224;22.506;2022-08-02T01:12:25;26.80;;;17.60;;
62401;SDS011;48440;51.224;22.506;2022-08-02T01:14:52;26.60;;;16.58;;
62401;SDS011;48440;51.224;22.506;2022-08-02T01:17:35;28.98;;;17.60;;
62401;SDS011;48440;51.224;22.506;2022-08-02T01:20:55;27.92;;;17.63;;
62401;SDS011;48440;51.224;22.506;2022-08-02T01:31:48;33.75;;;18.45;;
62401;SDS011;48440;51.224;22.506;2022-08-02T01:34:23;29.27;;;16.27;;
62401;SDS011;48440;51.224;22.506;2022-08-02T01:37:06;27.52;;;16.92;;
62401;SDS011;48440;51.224;22.506;2022-08-02T01:39:54;24.58;;;16.65;;
62401;SDS011;48440;51.224;22.506;2022-08-02T01:42:24;27.08;;;17.35;;
62401;SDS011;48440;51.224;22.506;2022-08-02T01:44:52;26.23;;;16.40;;
62401;SDS011;48440;51.224;22.506;2022-08-02T01:47:18;28.92;;;18.13;;
62401;SDS011;48440;51.224;22.506;2022-08-02T01:49:49;27.23;;;16.95;;
62401;SDS011;48440;51.224;22.506;2022-08-02T01:52:18;23.60;;;15.90;;
62401;SDS011;48440;51.224;22.506;2022-08-02T01:54:47;28.98;;;17.45;;
62401;SDS011;48440;51.224;22.506;2022-08-02T01:57:16;25.02;;;17.30;;
62401;SDS011;48440;51.224;22.506;2022-08-02T01:59:44;30.67;;;16.95;;
62401;SDS011;48440;51.224;22.506;2022-08-02T02:02:11;26.77;;;17.75;;
62401;SDS011;48440;51.224;22.506;2022-08-02T02:04:40;27.80;;;17.52;;
62401;SDS011;48440;51.224;22.506;2022-08-02T02:07:07;25.52;;;16.77;;
62401;SDS011;48440;51.224;22.506;2022-08-02T02:09:35;26.48;;;17.38;;
62401;SDS011;48440;51.224;22.506;2022-08-02T02:12:02;27.00;;;16.95;;
62401;SDS011;48440;51.224;22.506;2022-08-02T02:14:30;23.63;;;16.95;;
62401;SDS011;48440;51.224;22.506;2022-08-02T02:16:59;26.75;;;16.75;;
62401;SDS011;48440;51.224;22.506;2022-08-02T02:19:26;24.88;;;16.77;;
62401;SDS011;48440;51.224;22.506;2022-08-02T02:21:53;26.48;;;16.73;;
62401;SDS011;48440;51.224;22.506;2022-08-02T02:24:19;25.10;;;17.10;;
62401;SDS011;48440;51.224;22.506;2022-08-02T02:26:45;27.77;;;18.00;;
62401;SDS011;48440;51.224;22.506;2022-08-02T02:29:12;25.02;;;16.60;;
62401;SDS011;48440;51.224;22.506;2022-08-02T02:31:39;32.83;;;17.13;;
62401;SDS011;48440;51.224;22.506;2022-08-02T02:34:13;26.83;;;17.17;;
62401;SDS011;48440;51.224;22.506;2022-08-02T02:36:44;24.85;;;17.65;;
62401;SDS011;48440;51.224;22.506;2022-08-02T02:39:13;27.40;;;16.98;;
62401;SDS011;48440;51.224;22.506;2022-08-02T02:41:41;25.67;;;15.88;;
62401;SDS011;48440;51.224;22.506;2022-08-02T02:44:09;26.98;;;16.25;;
62401;SDS011;48440;51.224;22.506;2022-08-02T02:46:37;21.00;;;16.38;;
62401;SDS011;48440;51.224;22.506;2022-08-02T02:49:05;28.10;;;16.17;;
62401;SDS011;48440;51.224;22.506;2022-08-02T02:51:34;24.35;;;17.90;;
62401;SDS011;48440;51.224;22.506;2022-08-02T02:53:59;28.08;;;17.83;;
62401;SDS011;48440;51.224;22.506;2022-08-02T02:56:26;24.42;;;15.52;;
62401;SDS011;48440;51.224;22.506;2022-08-02T02:58:52;28.00;;;17.05;;
62401;SDS011;48440;51.224;22.506;2022-08-02T03:01:19;23.33;;;17.00;;
62401;SDS011;48440;51.224;22.506;2022-08-02T03:04:04;24.30;;;16.95;;
62401;SDS011;48440;51.224;22.506;2022-08-02T03:06:31;29.98;;;17.60;;
62401;SDS011;48440;51.224;22.506;2022-08-02T03:08:59;23.27;;;17.15;;
62401;SDS011;48440;51.224;22.506;2022-08-02T03:11:25;26.85;;;16.08;;
62401;SDS011;48440;51.224;22.506;2022-08-02T03:13:56;27.50;;;17.27;;
62401;SDS011;48440;51.224;22.506;2022-08-02T03:16:23;30.20;;;17.35;;
62401;SDS011;48440;51.224;22.506;2022-08-02T03:18:49;24.98;;;16.80;;
62401;SDS011;48440;51.224;22.506;2022-08-02T03:21:15;27.55;;;16.77;;
62401;SDS011;48440;51.224;22.506;2022-08-02T03:23:41;27.88;;;16.48;;
62401;SDS011;48440;51.224;22.506;2022-08-02T03:26:08;29.63;;;17.85;;
62401;SDS011;48440;51.224;22.506;2022-08-02T03:28:34;23.98;;;16.48;;
62401;SDS011;48440;51.224;22.506;2022-08-02T03:30:59;26.25;;;17.02;;
62401;SDS011;48440;51.224;22.506;2022-08-02T03:33:26;23.75;;;16.10;;
62401;SDS011;48440;51.224;22.506;2022-08-02T03:35:53;23.90;;;16.60;;
62401;SDS011;48440;51.224;22.506;2022-08-02T03:38:21;32.10;;;17.58;;
62401;SDS011;48440;51.224;22.506;2022-08-02T03:40:48;27.85;;;16.58;;
62401;SDS011;48440;51.224;22.506;2022-08-02T03:43:14;20.50;;;15.55;;
62401;SDS011;48440;51.224;22.506;2022-08-02T03:45:42;29.38;;;17.25;;
62401;SDS011;48440;51.224;22.506;2022-08-02T03:48:09;24.23;;;16.75;;
62401;SDS011;48440;51.224;22.506;2022-08-02T03:50:35;22.83;;;15.45;;
62401;SDS011;48440;51.224;22.506;2022-08-02T03:53:02;27.88;;;15.98;;
62401;SDS011;48440;51.224;22.506;2022-08-02T03:55:28;27.92;;;16.33;;
62401;SDS011;48440;51.224;22.506;2022-08-02T03:57:54;25.23;;;16.38;;
62401;SDS011;48440;51.224;22.506;2022-08-02T04:00:20;25.40;;;16.70;;
62401;SDS011;48440;51.224;22.506;2022-08-02T04:02:47;25.92;;;16.50;;
62401;SDS011;48440;51.224;22.506;2022-08-02T04:05:13;26.77;;;16.65;;
62401;SDS011;48440;51.224;22.506;2022-08-02T04:07:40;29.83;;;17.25;;
62401;SDS011;48440;51.224;22.506;2022-08-02T04:10:07;24.95;;;16.63;;
62401;SDS011;48440;51.224;22.506;2022-08-02T04:12:33;26.20;;;16.45;;
62401;SDS011;48440;51.224;22.506;2022-08-02T04:14:59;24.90;;;15.82;;
62401;SDS011;48440;51.224;22.506;2022-08-02T04:17:26;23.65;;;16.55;;
62401;SDS011;48440;51.224;22.506;2022-08-02T04:19:57;22.60;;;15.77;;
62401;SDS011;48440;51.224;22.506;2022-08-02T04:22:29;24.13;;;16.98;;
62401;SDS011;48440;51.224;22.506;2022-08-02T04:25:12;27.08;;;17.27;;
62401;SDS011;48440;51.224;22.506;2022-08-02T04:27:40;24.77;;;16.20;;
62401;SDS011;48440;51.224;22.506;2022-08-02T04:30:06;25.90;;;15.82;;
62401;SDS011;48440;51.224;22.506;2022-08-02T04:32:32;31.27;;;16.05;;
62401;SDS011;48440;51.224;22.506;2022-08-02T04:34:59;25.98;;;15.93;;
62401;SDS011;48440;51.224;22.506;2022-08-02T04:37:25;26.40;;;16.30;;
62401;SDS011;48440;51.224;22.506;2022-08-02T04:39:51;28.08;;;16.50;;
62401;SDS011;48440;51.224;22.506;2022-08-02T04:42:20;24.67;;;16.55;;
62401;SDS011;48440;51.224;22.506;2022-08-02T04:44:49;25.08;;;16.48;;
62401;SDS011;48440;51.224;22.506;2022-08-02T04:47:16;22.95;;;16.60;;
62401;SDS011;48440;51.224;22.506;2022-08-02T04:49:42;24.55;;;17.83;;
62401;SDS011;48440;51.224;22.506;2022-08-02T04:52:07;28.55;;;18.60;;
62401;SDS011;48440;51.224;22.506;2022-08-02T04:54:33;28.73;;;19.02;;
62401;SDS011;48440;51.224;22.506;2022-08-02T04:56:58;26.52;;;17.50;;
62401;SDS011;48440;51.224;22.506;2022-08-02T04:59:24;27.50;;;18.30;;
62401;SDS011;48440;51.224;22.506;2022-08-02T05:01:50;30.17;;;16.83;;
62401;SDS011;48440;51.224;22.506;2022-08-02T05:04:15;30.90;;;18.95;;
62401;SDS011;48440;51.224;22.506;2022-08-02T05:06:41;26.85;;;17.42;;
62401;SDS011;48440;51.224;22.506;2022-08-02T05:09:06;23.02;;;16.83;;
62401;SDS011;48440;51.224;22.506;2022-08-02T05:11:32;23.98;;;15.50;;
62401;SDS011;48440;51.224;22.506;2022-08-02T05:13:57;20.42;;;16.67;;
62401;SDS011;48440;51.224;22.506;2022-08-02T05:16:23;28.65;;;15.13;;
62401;SDS011;48440;51.224;22.506;2022-08-02T05:18:50;25.98;;;15.20;;
62401;SDS011;48440;51.224;22.506;2022-08-02T05:21:16;27.70;;;15.93;;
62401;SDS011;48440;51.224;22.506;2022-08-02T05:23:41;21.80;;;16.13;;
62401;SDS011;48440;51.224;22.506;2022-08-02T05:26:07;21.73;;;14.85;;
62401;SDS011;48440;51.224;22.506;2022-08-02T05:28:32;30.67;;;15.98;;
62401;SDS011;48440;51.224;22.506;2022-08-02T05:30:58;20.58;;;14.48;;
62401;SDS011;48440;51.224;22.506;2022-08-02T05:33:24;23.73;;;15.23;;
62401;SDS011;48440;51.224;22.506;2022-08-02T05:35:50;30.95;;;16.42;;
62401;SDS011;48440;51.224;22.506;2022-08-02T05:38:15;21.42;;;14.38;;
62401;SDS011;48440;51.224;22.506;2022-08-02T05:40:41;23.13;;;15.68;;
62401;SDS011;48440;51.224;22.506;2022-08-02T05:43:13;23.15;;;16.23;;
62401;SDS011;48440;51.224;22.506;2022-08-02T05:45:39;24.85;;;15.68;;
62401;SDS011;48440;51.224;22.506;2022-08-02T05:48:05;23.90;;;16.42;;
62401;SDS011;48440;51.224;22.506;2022-08-02T05:50:31;21.42;;;16.52;;
62401;SDS011;48440;51.224;22.506;2022-08-02T05:55:34;22.00;;;17.10;;
62401;SDS011;48440;51.224;22.506;2022-08-02T05:58:25;24.23;;;16.85;;
62401;SDS011;48440;51.224;22.506;2022-08-02T06:00:55;25.38;;;16.95;;
62401;SDS011;48440;51.224;22.506;2022-08-02T06:03:25;23.15;;;15.85;;
62401;SDS011;48440;51.224;22.506;2022-08-02T06:06:01;19.40;;;15.50;;
62401;SDS011;48440;51.224;22.506;2022-08-02T06:08:32;20.13;;;14.88;;
62401;SDS011;48440;51.224;22.506;2022-08-02T06:11:02;26.63;;;14.48;;
62401;SDS011;48440;51.224;22.506;2022-08-02T06:13:30;27.83;;;15.05;;
62401;SDS011;48440;51.224;22.506;2022-08-02T06:15:56;20.90;;;15.77;;
62401;SDS011;48440;51.224;22.506;2022-08-02T06:18:27;23.67;;;14.40;;
62401;SDS011;48440;51.224;22.506;2022-08-02T06:20:54;22.17;;;13.45;;
62401;SDS011;48440;51.224;22.506;2022-08-02T06:23:22;20.38;;;15.02;;
62401;SDS011;48440;51.224;22.506;2022-08-02T06:25:50;20.63;;;13.18;;
62401;SDS011;48440;51.224;22.506;2022-08-02T06:28:17;19.20;;;11.50;;
62401;SDS011;48440;51.224;22.506;2022-08-02T06:30:44;19.45;;;11.68;;
62401;SDS011;48440;51.224;22.506;2022-08-02T06:33:10;17.60;;;12.30;;
62401;SDS011;48440;51.224;22.506;2022-08-02T06:43:37;10.88;;;7.80;;
62401;SDS011;48440;51.224;22.506;2022-08-02T06:46:25;10.98;;;7.75;;
62401;SDS011;48440;51.224;22.506;2022-08-02T06:48:51;9.95;;;6.63;;
62401;SDS011;48440;51.224;22.506;2022-08-02T06:51:17;9.68;;;6.80;;
62401;SDS011;48440;51.224;22.506;2022-08-02T06:53:43;8.15;;;5.45;;
62401;SDS011;48440;51.224;22.506;2022-08-02T06:56:09;11.93;;;5.45;;
62401;SDS011;48440;51.224;22.506;2022-08-02T06:58:35;11.85;;;5.68;;
62401;SDS011;48440;51.224;22.506;2022-08-02T07:01:01;8.38;;;5.88;;
62401;SDS011;48440;51.224;22.506;2022-08-02T07:03:31;9.88;;;5.82;;
62401;SDS011;48440;51.224;22.506;2022-08-02T07:05:57;13.57;;;7.07;;
62401;SDS011;48440;51.224;22.506;2022-08-02T07:08:23;11.10;;;6.93;;
62401;SDS011;48440;51.224;22.506;2022-08-02T07:10:50;15.38;;;7.40;;
62401;SDS011;48440;51.224;22.506;2022-08-02T07:13:15;17.17;;;7.95;;
62401;SDS011;48440;51.224;22.506;2022-08-02T07:15:41;17.42;;;7.38;;
62401;SDS011;48440;51.224;22.506;2022-08-02T07:18:07;10.07;;;7.22;;
62401;SDS011;48440;51.224;22.506;2022-08-02T07:20:38;12.35;;;7.90;;
62401;SDS011;48440;51.224;22.506;2022-08-02T07:23:05;12.48;;;8.32;;
62401;SDS011;48440;51.224;22.506;2022-08-02T07:25:31;12.45;;;7.65;;
62401;SDS011;48440;51.224;22.506;2022-08-02T07:27:56;11.82;;;8.23;;
62401;SDS011;48440;51.224;22.506;2022-08-02T07:30:22;10.57;;;7.13;;
62401;SDS011;48440;51.224;22.506;2022-08-02T07:32:47;15.23;;;7.90;;
62401;SDS011;48440;51.224;22.506;2022-08-02T07:35:13;12.13;;;7.82;;
62401;SDS011;48440;51.224;22.506;2022-08-02T07:37:38;9.93;;;6.22;;
62401;SDS011;48440;51.224;22.506;2022-08-02T07:40:07;13.98;;;6.93;;
62401;SDS011;48440;51.224;22.506;2022-08-02T07:42:33;11.18;;;6.65;;
62401;SDS011;48440;51.224;22.506;2022-08-02T07:44:59;12.95;;;6.32;;
62401;SDS011;48440;51.224;22.506;2022-08-02T07:47:24;12.30;;;6.45;;
62401;SDS011;48440;51.224;22.506;2022-08-02T07:49:50;12.45;;;6.75;;
62401;SDS011;48440;51.224;22.506;2022-08-02T07:52:15;14.73;;;6.40;;
62401;SDS011;48440;51.224;22.506;2022-08-02T07:54:41;10.25;;;6.45;;
62401;SDS011;48440;51.224;22.506;2022-08-02T07:57:06;13.55;;;6.38;;
62401;SDS011;48440;51.224;22.506;2022-08-02T07:59:32;13.68;;;6.18;;
62401;SDS011;48440;51.224;22.506;2022-08-02T08:01:57;10.25;;;6.18;;
62401;SDS011;48440;51.224;22.506;2022-08-02T08:04:23;8.38;;;6.50;;
62401;SDS011;48440;51.224;22.506;2022-08-02T08:06:48;9.93;;;6.45;;
62401;SDS011;48440;51.224;22.506;2022-08-02T08:09:17;11.68;;;7.10;;
62401;SDS011;48440;51.224;22.506;2022-08-02T08:11:43;12.02;;;6.35;;
62401;SDS011;48440;51.224;22.506;2022-08-02T08:14:08;8.15;;;7.00;;
62401;SDS011;48440;51.224;22.506;2022-08-02T08:16:34;12.00;;;7.00;;
62401;SDS011;48440;51.224;22.506;2022-08-02T08:19:00;11.70;;;7.22;;
62401;SDS011;48440;51.224;22.506;2022-08-02T08:21:26;12.30;;;7.53;;
62401;SDS011;48440;51.224;22.506;2022-08-02T08:23:52;17.13;;;6.63;;
62401;SDS011;48440;51.224;22.506;2022-08-02T08:26:17;11.93;;;6.90;;
62401;SDS011;48440;51.224;22.506;2022-08-02T08:28:43;11.07;;;7.10;;
62401;SDS011;48440;51.224;22.506;2022-08-02T08:31:08;12.35;;;6.78;;
62401;SDS011;48440;51.224;22.506;2022-08-02T08:33:34;12.68;;;6.95;;
62401;SDS011;48440;51.224;22.506;2022-08-02T08:35:59;12.77;;;6.90;;
62401;SDS011;48440;51.224;22.506;2022-08-02T08:38:25;10.18;;;6.32;;
62401;SDS011;48440;51.224;22.506;2022-08-02T08:40:50;9.38;;;6.28;;
62401;SDS011;48440;51.224;22.506;2022-08-02T08:43:16;10.60;;;6.47;;
62401;SDS011;48440;51.224;22.506;2022-08-02T08:45:46;11.32;;;6.78;;
62401;SDS011;48440;51.224;22.506;2022-08-02T08:48:14;14.18;;;6.97;;
62401;SDS011;48440;51.224;22.506;2022-08-02T08:53:22;9.07;;;6.50;;
62401;SDS011;48440;51.224;22.506;2022-08-02T08:55:51;10.48;;;7.40;;
62401;SDS011;48440;51.224;22.506;2022-08-02T08:58:18;9.73;;;6.65;;
62401;SDS011;48440;51.224;22.506;2022-08-02T09:00:43;11.88;;;6.85;;
62401;SDS011;48440;51.224;22.506;2022-08-02T09:03:11;11.57;;;6.63;;
62401;SDS011;48440;51.224;22.506;2022-08-02T09:05:37;8.77;;;6.88;;
62401;SDS011;48440;51.224;22.506;2022-08-02T09:08:03;10.65;;;7.07;;
62401;SDS011;48440;51.224;22.506;2022-08-02T09:10:31;13.75;;;7.20;;
62401;SDS011;48440;51.224;22.506;2022-08-02T09:16:06;11.73;;;6.90;;
62401;SDS011;48440;51.224;22.506;2022-08-02T09:18:34;11.70;;;6.70;;
62401;SDS011;48440;51.224;22.506;2022-08-02T09:21:10;10.70;;;6.25;;
62401;SDS011;48440;51.224;22.506;2022-08-02T09:26:04;9.88;;;6.35;;
62401;SDS011;48440;51.224;22.506;2022-08-02T09:28:39;12.07;;;6.95;;
62401;SDS011;48440;51.224;22.506;2022-08-02T09:31:08;11.60;;;6.97;;
62401;SDS011;48440;51.224;22.506;2022-08-02T09:33:37;9.57;;;6.45;;
62401;SDS011;48440;51.224;22.506;2022-08-02T09:36:05;8.02;;;6.32;;
62401;SDS011;48440;51.224;22.506;2022-08-02T09:38:32;9.10;;;6.65;;
62401;SDS011;48440;51.224;22.506;2022-08-02T09:40:59;12.05;;;6.75;;
62401;SDS011;48440;51.224;22.506;2022-08-02T09:43:35;11.20;;;6.80;;
62401;SDS011;48440;51.224;22.506;2022-08-02T09:46:12;9.48;;;6.93;;
62401;SDS011;48440;51.224;22.506;2022-08-02T09:48:52;16.35;;;7.03;;
62401;SDS011;48440;51.224;22.506;2022-08-02T09:53:48;11.20;;;7.32;;
62401;SDS011;48440;51.224;22.506;2022-08-02T09:56:19;11.35;;;7.03;;
62401;SDS011;48440;51.224;22.506;2022-08-02T09:58:47;9.80;;;7.00;;
62401;SDS011;48440;51.224;22.506;2022-08-02T10:01:15;10.45;;;7.13;;
62401;SDS011;48440;51.224;22.506;2022-08-02T10:03:54;8.57;;;6.47;;
62401;SDS011;48440;51.224;22.506;2022-08-02T10:06:22;8.50;;;6.78;;
62401;SDS011;48440;51.224;22.506;2022-08-02T10:08:48;7.95;;;6.10;;
62401;SDS011;48440;51.224;22.506;2022-08-02T10:11:14;11.15;;;6.50;;
62401;SDS011;48440;51.224;22.506;2022-08-02T10:13:40;14.02;;;6.30;;
62401;SDS011;48440;51.224;22.506;2022-08-02T10:16:07;10.70;;;6.45;;
62401;SDS011;48440;51.224;22.506;2022-08-02T10:18:33;9.90;;;6.80;;
62401;SDS011;48440;51.224;22.506;2022-08-02T10:21:00;7.40;;;6.30;;
62401;SDS011;48440;51.224;22.506;2022-08-02T10:23:26;10.18;;;6.45;;
62401;SDS011;48440;51.224;22.506;2022-08-02T10:25:58;10.10;;;6.47;;
62401;SDS011;48440;51.224;22.506;2022-08-02T10:28:26;8.38;;;6.35;;
62401;SDS011;48440;51.224;22.506;2022-08-02T10:31:01;8.87;;;6.07;;
62401;SDS011;48440;51.224;22.506;2022-08-02T10:33:29;8.73;;;6.28;;
62401;SDS011;48440;51.224;22.506;2022-08-02T10:35:59;11.30;;;6.20;;
62401;SDS011;48440;51.224;22.506;2022-08-02T10:38:27;12.60;;;6.00;;
62401;SDS011;48440;51.224;22.506;2022-08-02T10:40:54;10.02;;;6.05;;
62401;SDS011;48440;51.224;22.506;2022-08-02T10:43:39;9.50;;;6.25;;
62401;SDS011;48440;51.224;22.506;2022-08-02T10:54:25;8.80;;;5.93;;
62401;SDS011;48440;51.224;22.506;2022-08-02T10:56:54;10.73;;;6.78;;
62401;SDS011;48440;51.224;22.506;2022-08-02T10:59:27;9.70;;;6.20;;
62401;SDS011;48440;51.224;22.506;2022-08-02T11:02:03;10.18;;;6.22;;
62401;SDS011;48440;51.224;22.506;2022-08-02T11:04:31;9.23;;;6.43;;
62401;SDS011;48440;51.224;22.506;2022-08-02T11:07:07;11.20;;;5.85;;
62401;SDS011;48440;51.224;22.506;2022-08-02T11:09:33;11.25;;;6.28;;
62401;SDS011;48440;51.224;22.506;2022-08-02T11:12:03;10.13;;;6.18;;
62401;SDS011;48440;51.224;22.506;2022-08-02T11:14:31;10.43;;;6.57;;
62401;SDS011;48440;51.224;22.506;2022-08-02T11:19:27;8.43;;;6.00;;
62401;SDS011;48440;51.224;22.506;2022-08-02T11:24:28;8.68;;;6.57;;
62401;SDS011;48440;51.224;22.506;2022-08-02T11:26:56;10.10;;;6.20;;
62401;SDS011;48440;51.224;22.506;2022-08-02T11:29:41;10.43;;;6.18;;
62401;SDS011;48440;51.224;22.506;2022-08-02T11:32:18;8.80;;;6.07;;
62401;SDS011;48440;51.224;22.506;2022-08-02T11:34:47;9.27;;;6.22;;
62401;SDS011;48440;51.224;22.506;2022-08-02T11:39:57;11.73;;;6.68;;
62401;SDS011;48440;51.224;22.506;2022-08-02T11:44:59;7.45;;;6.03;;
62401;SDS011;48440;51.224;22.506;2022-08-02T11:47:24;11.43;;;6.05;;
62401;SDS011;48440;51.224;22.506;2022-08-02T11:49:50;7.72;;;6.03;;
62401;SDS011;48440;51.224;22.506;2022-08-02T11:52:16;8.75;;;6.03;;
62401;SDS011;48440;51.224;22.506;2022-08-02T11:54:42;8.05;;;6.28;;
62401;SDS011;48440;51.224;22.506;2022-08-02T11:59:37;7.95;;;5.47;;
62401;SDS011;48440;51.224;22.506;2022-08-02T12:02:04;8.90;;;5.53;;
62401;SDS011;48440;51.224;22.506;2022-08-02T12:04:31;7.50;;;5.50;;
62401;SDS011;48440;51.224;22.506;2022-08-02T12:06:57;6.95;;;4.97;;
62401;SDS011;48440;51.224;22.506;2022-08-02T12:09:30;7.60;;;5.20;;
62401;SDS011;48440;51.224;22.506;2022-08-02T12:11:57;7.50;;;5.05;;
62401;SDS011;48440;51.224;22.506;2022-08-02T12:14:24;6.43;;;4.75;;
62401;SDS011;48440;51.224;22.506;2022-08-02T12:16:51;8.13;;;4.88;;
62401;SDS011;48440;51.224;22.506;2022-08-02T12:19:36;7.10;;;5.35;;
62401;SDS011;48440;51.224;22.506;2022-08-02T12:22:21;7.40;;;5.10;;
62401;SDS011;48440;51.224;22.506;2022-08-02T12:24:50;8.27;;;5.10;;
62401;SDS011;48440;51.224;22.506;2022-08-02T12:30:12;6.53;;;4.57;;
62401;SDS011;48440;51.224;22.506;2022-08-02T12:32:39;8.68;;;4.60;;
62401;SDS011;48440;51.224;22.506;2022-08-02T12:37:34;8.63;;;5.00;;
62401;SDS011;48440;51.224;22.506;2022-08-02T12:43:03;6.60;;;4.03;;
62401;SDS011;48440;51.224;22.506;2022-08-02T12:45:43;5.85;;;5.03;;
62401;SDS011;48440;51.224;22.506;2022-08-02T12:48:12;8.00;;;4.40;;
62401;SDS011;48440;51.224;22.506;2022-08-02T12:50:38;8.25;;;4.25;;
62401;SDS011;48440;51.224;22.506;2022-08-02T12:53:10;6.80;;;4.88;;
62401;SDS011;48440;51.224;22.506;2022-08-02T12:55:51;10.05;;;4.93;;
62401;SDS011;48440;51.224;22.506;2022-08-02T12:58:19;8.90;;;5.30;;
62401;SDS011;48440;51.224;22.506;2022-08-02T13:00:52;10.82;;;4.70;;
62401;SDS011;48440;51.224;22.506;2022-08-02T13:03:19;9.20;;;4.65;;
62401;SDS011;48440;51.224;22.506;2022-08-02T13:05:45;14.27;;;4.32;;
62401;SDS011;48440;51.224;22.506;2022-08-02T13:08:11;8.85;;;4.25;;
62401;SDS011;48440;51.224;22.506;2022-08-02T13:10:37;9.80;;;4.45;;
62401;SDS011;48440;51.224;22.506;2022-08-02T13:13:03;6.63;;;4.35;;
62401;SDS011;48440;51.224;22.506;2022-08-02T13:15:28;8.80;;;4.60;;
62401;SDS011;48440;51.224;22.506;2022-08-02T13:17:54;10.15;;;5.15;;
62401;SDS011;48440;51.224;22.506;2022-08-02T13:20:20;8.82;;;4.70;;
62401;SDS011;48440;51.224;22.506;2022-08-02T13:22:46;5.80;;;4.30;;
62401;SDS011;48440;51.224;22.506;2022-08-02T13:25:11;5.95;;;4.35;;
62401;SDS011;48440;51.224;22.506;2022-08-02T13:27:37;6.75;;;4.47;;
62401;SDS011;48440;51.224;22.506;2022-08-02T13:30:03;7.15;;;4.57;;
62401;SDS011;48440;51.224;22.506;2022-08-02T13:32:30;5.72;;;4.35;;
62401;SDS011;48440;51.224;22.506;2022-08-02T13:34:56;8.05;;;4.45;;
62401;SDS011;48440;51.224;22.506;2022-08-02T13:37:22;6.68;;;4.38;;
62401;SDS011;48440;51.224;22.506;2022-08-02T13:39:48;6.78;;;4.50;;
62401;SDS011;48440;51.224;22.506;2022-08-02T13:42:14;6.47;;;4.38;;
62401;SDS011;48440;51.224;22.506;2022-08-02T13:44:40;7.65;;;4.70;;
62401;SDS011;48440;51.224;22.506;2022-08-02T13:47:05;8.25;;;5.28;;
62401;SDS011;48440;51.224;22.506;2022-08-02T13:49:35;6.88;;;4.93;;
62401;SDS011;48440;51.224;22.506;2022-08-02T13:52:01;10.43;;;5.10;;
62401;SDS011;48440;51.224;22.506;2022-08-02T13:54:27;13.25;;;5.10;;
62401;SDS011;48440;51.224;22.506;2022-08-02T13:56:52;13.32;;;5.07;;
62401;SDS011;48440;51.224;22.506;2022-08-02T13:59:18;7.50;;;5.18;;
62401;SDS011;48440;51.224;22.506;2022-08-02T14:01:44;7.75;;;5.57;;
62401;SDS011;48440;51.224;22.506;2022-08-02T14:04:09;7.07;;;4.75;;
62401;SDS011;48440;51.224;22.506;2022-08-02T14:06:35;8.95;;;4.82;;
62401;SDS011;48440;51.224;22.506;2022-08-02T14:09:02;5.13;;;4.20;;
62401;SDS011;48440;51.224;22.506;2022-08-02T14:11:28;8.93;;;4.75;;
62401;SDS011;48440;51.224;22.506;2022-08-02T14:13:55;12.32;;;4.80;;
62401;SDS011;48440;51.224;22.506;2022-08-02T14:16:20;5.57;;;4.95;;
62401;SDS011;48440;51.224;22.506;2022-08-02T14:18:46;5.80;;;4.68;;
62401;SDS011;48440;51.224;22.506;2022-08-02T14:21:11;5.32;;;4.55;;
62401;SDS011;48440;51.224;22.506;2022-08-02T14:23:37;7.68;;;5.32;;
62401;SDS011;48440;51.224;22.506;2022-08-02T14:26:03;7.05;;;4.85;;
62401;SDS011;48440;51.224;22.506;2022-08-02T14:28:29;7.05;;;4.53;;
62401;SDS011;48440;51.224;22.506;2022-08-02T14:30:55;5.03;;;4.32;;
62401;SDS011;48440;51.224;22.506;2022-08-02T14:33:20;8.18;;;4.65;;
62401;SDS011;48440;51.224;22.506;2022-08-02T14:35:47;8.93;;;4.70;;
62401;SDS011;48440;51.224;22.506;2022-08-02T14:38:13;7.20;;;4.80;;
62401;SDS011;48440;51.224;22.506;2022-08-02T14:40:39;8.85;;;5.18;;
62401;SDS011;48440;51.224;22.506;2022-08-02T14:43:04;11.57;;;4.68;;
62401;SDS011;48440;51.224;22.506;2022-08-02T14:45:30;8.40;;;4.97;;
62401;SDS011;48440;51.224;22.506;2022-08-02T14:47:56;8.32;;;4.68;;
62401;SDS011;48440;51.224;22.506;2022-08-02T14:50:22;6.88;;;4.72;;
62401;SDS011;48440;51.224;22.506;2022-08-02T14:52:48;6.03;;;4.22;;
62401;SDS011;48440;51.224;22.506;2022-08-02T14:55:15;4.93;;;4.43;;
62401;SDS011;48440;51.224;22.506;2022-08-02T14:57:41;8.27;;;4.80;;
62401;SDS011;48440;51.224;22.506;2022-08-02T15:00:07;9.25;;;5.00;;
62401;SDS011;48440;51.224;22.506;2022-08-02T15:02:34;8.40;;;4.72;;
62401;SDS011;48440;51.224;22.506;2022-08-02T15:05:00;6.32;;;4.93;;
62401;SDS011;48440;51.224;22.506;2022-08-02T15:07:25;7.38;;;4.75;;
62401;SDS011;48440;51.224;22.506;2022-08-02T15:09:54;8.93;;;4.82;;
62401;SDS011;48440;51.224;22.506;2022-08-02T15:12:30;8.30;;;5.30;;
62401;SDS011;48440;51.224;22.506;2022-08-02T15:14:55;7.45;;;5.22;;
62401;SDS011;48440;51.224;22.506;2022-08-02T15:17:21;10.50;;;4.90;;
62401;SDS011;48440;51.224;22.506;2022-08-02T15:19:47;8.00;;;5.15;;
62401;SDS011;48440;51.224;22.506;2022-08-02T15:22:13;6.93;;;4.72;;
62401;SDS011;48440;51.224;22.506;2022-08-02T15:24:39;7.25;;;4.90;;